<?xml version="1.0" encoding="utf-8"?>
<gpx xmlns:xsi="http://www.w3.org/2001/XMLSchema-instance" xmlns:xsd="http://www.w3.org/2001/XMLSchema" version="1.1" creator="Shapelink.com" xmlns="http://www.topografix.com/GPX/1/1" xmlns:gpxtpx="http://www.garmin.com/xmlschemas/TrackPointExtension/v1">
  <metadata>
    <name>Løping 0.89 km, 2013-05-15</name>
    <desc></desc>
    <author><name>Mikael Blom</name></author> 
    <time>2013-05-15T21:08:04Z</time>
  </metadata>
  <trk>
    <name>Løping 0.89 km, 2013-05-15</name>
    <trkseg>
      <trkpt lat="59.9559281" lon="17.7222743">
        <ele>46.7612</ele>
        <time>2013-05-15T21:08:04Z</time>
      </trkpt>
      <trkpt lat="59.9559303" lon="17.7222271">
        <ele>47.7225</ele>
        <time>2013-05-15T21:08:05Z</time>
      </trkpt>
      <trkpt lat="59.9559323" lon="17.72217">
        <ele>47.7225</ele>
        <time>2013-05-15T21:08:06Z</time>
      </trkpt>
      <trkpt lat="59.9559331" lon="17.7221124">
        <ele>47.7225</ele>
        <time>2013-05-15T21:08:07Z</time>
      </trkpt>
      <trkpt lat="59.9559353" lon="17.7220502">
        <ele>47.7225</ele>
        <time>2013-05-15T21:08:08Z</time>
      </trkpt>
      <trkpt lat="59.9559323" lon="17.7219889">
        <ele>47.7225</ele>
        <time>2013-05-15T21:08:09Z</time>
      </trkpt>
      <trkpt lat="59.9559286" lon="17.7219372">
        <ele>46.7612</ele>
        <time>2013-05-15T21:08:10Z</time>
      </trkpt>
      <trkpt lat="59.9559311" lon="17.7218844">
        <ele>46.7612</ele>
        <time>2013-05-15T21:08:11Z</time>
      </trkpt>
      <trkpt lat="59.9559341" lon="17.7218321">
        <ele>46.2806</ele>
        <time>2013-05-15T21:08:12Z</time>
      </trkpt>
      <trkpt lat="59.9559384" lon="17.7217736">
        <ele>46.7612</ele>
        <time>2013-05-15T21:08:13Z</time>
      </trkpt>
      <trkpt lat="59.9559452" lon="17.7217151">
        <ele>46.7612</ele>
        <time>2013-05-15T21:08:14Z</time>
      </trkpt>
      <trkpt lat="59.9559509" lon="17.7216597">
        <ele>47.7225</ele>
        <time>2013-05-15T21:08:15Z</time>
      </trkpt>
      <trkpt lat="59.9559575" lon="17.721598">
        <ele>49.1646</ele>
        <time>2013-05-15T21:08:16Z</time>
      </trkpt>
      <trkpt lat="59.9559633" lon="17.7215373">
        <ele>50.6066</ele>
        <time>2013-05-15T21:08:17Z</time>
      </trkpt>
      <trkpt lat="59.9559675" lon="17.7214897">
        <ele>51.0872</ele>
        <time>2013-05-15T21:08:18Z</time>
      </trkpt>
      <trkpt lat="59.9559659" lon="17.7214501">
        <ele>51.0872</ele>
        <time>2013-05-15T21:08:19Z</time>
      </trkpt>
      <trkpt lat="59.9559689" lon="17.7214082">
        <ele>53.0098</ele>
        <time>2013-05-15T21:08:20Z</time>
      </trkpt>
      <trkpt lat="59.9559614" lon="17.7213781">
        <ele>53.0098</ele>
        <time>2013-05-15T21:08:21Z</time>
      </trkpt>
      <trkpt lat="59.95595" lon="17.7213331">
        <ele>53.0098</ele>
        <time>2013-05-15T21:08:22Z</time>
      </trkpt>
      <trkpt lat="59.9559307" lon="17.7212948">
        <ele>52.5292</ele>
        <time>2013-05-15T21:08:23Z</time>
      </trkpt>
      <trkpt lat="59.95591" lon="17.7212628">
        <ele>52.0486</ele>
        <time>2013-05-15T21:08:24Z</time>
      </trkpt>
      <trkpt lat="59.9558899" lon="17.7212333">
        <ele>51.5679</ele>
        <time>2013-05-15T21:08:25Z</time>
      </trkpt>
      <trkpt lat="59.9558669" lon="17.721209">
        <ele>51.0872</ele>
        <time>2013-05-15T21:08:26Z</time>
      </trkpt>
      <trkpt lat="59.9558484" lon="17.721164">
        <ele>50.6066</ele>
        <time>2013-05-15T21:08:27Z</time>
      </trkpt>
      <trkpt lat="59.9558251" lon="17.7211249">
        <ele>50.126</ele>
        <time>2013-05-15T21:08:28Z</time>
      </trkpt>
      <trkpt lat="59.9557979" lon="17.7211214">
        <ele>48.2034</ele>
        <time>2013-05-15T21:08:29Z</time>
      </trkpt>
      <trkpt lat="59.9557738" lon="17.7211461">
        <ele>47.2418</ele>
        <time>2013-05-15T21:08:30Z</time>
      </trkpt>
      <trkpt lat="59.9557563" lon="17.7211743">
        <ele>46.7612</ele>
        <time>2013-05-15T21:08:31Z</time>
      </trkpt>
      <trkpt lat="59.9557375" lon="17.7212015">
        <ele>45.7999</ele>
        <time>2013-05-15T21:08:32Z</time>
      </trkpt>
      <trkpt lat="59.9557166" lon="17.7212254">
        <ele>45.3192</ele>
        <time>2013-05-15T21:08:33Z</time>
      </trkpt>
      <trkpt lat="59.9556976" lon="17.7212498">
        <ele>44.358</ele>
        <time>2013-05-15T21:08:34Z</time>
      </trkpt>
      <trkpt lat="59.9556733" lon="17.7212668">
        <ele>43.3966</ele>
        <time>2013-05-15T21:08:35Z</time>
      </trkpt>
      <trkpt lat="59.9556516" lon="17.7212752">
        <ele>42.916</ele>
        <time>2013-05-15T21:08:36Z</time>
      </trkpt>
      <trkpt lat="59.9556356" lon="17.7212809">
        <ele>41.9547</ele>
        <time>2013-05-15T21:08:37Z</time>
      </trkpt>
      <trkpt lat="59.9556153" lon="17.7212873">
        <ele>40.9934</ele>
        <time>2013-05-15T21:08:38Z</time>
      </trkpt>
      <trkpt lat="59.9555867" lon="17.7212887">
        <ele>40.5128</ele>
        <time>2013-05-15T21:08:39Z</time>
      </trkpt>
      <trkpt lat="59.9555631" lon="17.7212938">
        <ele>40.0321</ele>
        <time>2013-05-15T21:08:40Z</time>
      </trkpt>
      <trkpt lat="59.9555391" lon="17.7212943">
        <ele>39.0707</ele>
        <time>2013-05-15T21:08:41Z</time>
      </trkpt>
      <trkpt lat="59.9555111" lon="17.7212959">
        <ele>38.5901</ele>
        <time>2013-05-15T21:08:42Z</time>
      </trkpt>
      <trkpt lat="59.9554866" lon="17.7212938">
        <ele>38.5901</ele>
        <time>2013-05-15T21:08:43Z</time>
      </trkpt>
      <trkpt lat="59.9554651" lon="17.7212935">
        <ele>38.5901</ele>
        <time>2013-05-15T21:08:44Z</time>
      </trkpt>
      <trkpt lat="59.9554394" lon="17.7212818">
        <ele>38.5901</ele>
        <time>2013-05-15T21:08:45Z</time>
      </trkpt>
      <trkpt lat="59.9554108" lon="17.7212681">
        <ele>38.5901</ele>
        <time>2013-05-15T21:08:46Z</time>
      </trkpt>
      <trkpt lat="59.9553872" lon="17.7212539">
        <ele>39.0707</ele>
        <time>2013-05-15T21:08:47Z</time>
      </trkpt>
      <trkpt lat="59.9553609" lon="17.7212422">
        <ele>39.0707</ele>
        <time>2013-05-15T21:08:48Z</time>
      </trkpt>
      <trkpt lat="59.9553361" lon="17.7212282">
        <ele>39.0707</ele>
        <time>2013-05-15T21:08:49Z</time>
      </trkpt>
      <trkpt lat="59.9553147" lon="17.7212153">
        <ele>39.0707</ele>
        <time>2013-05-15T21:08:50Z</time>
      </trkpt>
      <trkpt lat="59.9552986" lon="17.7212114">
        <ele>39.0707</ele>
        <time>2013-05-15T21:08:51Z</time>
      </trkpt>
      <trkpt lat="59.9552835" lon="17.7212142">
        <ele>39.0707</ele>
        <time>2013-05-15T21:08:52Z</time>
      </trkpt>
      <trkpt lat="59.9552699" lon="17.7212149">
        <ele>39.0707</ele>
        <time>2013-05-15T21:08:53Z</time>
      </trkpt>
      <trkpt lat="59.9552558" lon="17.7212069">
        <ele>39.0707</ele>
        <time>2013-05-15T21:08:54Z</time>
      </trkpt>
      <trkpt lat="59.9552371" lon="17.7211975">
        <ele>39.5513</ele>
        <time>2013-05-15T21:08:55Z</time>
      </trkpt>
      <trkpt lat="59.955218" lon="17.7211937">
        <ele>39.0707</ele>
        <time>2013-05-15T21:08:56Z</time>
      </trkpt>
      <trkpt lat="59.9551924" lon="17.7211944">
        <ele>39.0707</ele>
        <time>2013-05-15T21:08:57Z</time>
      </trkpt>
      <trkpt lat="59.9551665" lon="17.7211867">
        <ele>39.5513</ele>
        <time>2013-05-15T21:08:58Z</time>
      </trkpt>
      <trkpt lat="59.9551444" lon="17.7211826">
        <ele>40.0321</ele>
        <time>2013-05-15T21:08:59Z</time>
      </trkpt>
      <trkpt lat="59.9551225" lon="17.7211973">
        <ele>40.0321</ele>
        <time>2013-05-15T21:09:00Z</time>
      </trkpt>
      <trkpt lat="59.955096" lon="17.7212114">
        <ele>40.5128</ele>
        <time>2013-05-15T21:09:01Z</time>
      </trkpt>
      <trkpt lat="59.9550771" lon="17.7212062">
        <ele>39.5513</ele>
        <time>2013-05-15T21:09:02Z</time>
      </trkpt>
      <trkpt lat="59.9550499" lon="17.7211999">
        <ele>40.0321</ele>
        <time>2013-05-15T21:09:03Z</time>
      </trkpt>
      <trkpt lat="59.9550226" lon="17.7211909">
        <ele>39.5513</ele>
        <time>2013-05-15T21:09:04Z</time>
      </trkpt>
      <trkpt lat="59.9549998" lon="17.7211701">
        <ele>39.5513</ele>
        <time>2013-05-15T21:09:05Z</time>
      </trkpt>
      <trkpt lat="59.9549761" lon="17.7211381">
        <ele>40.5128</ele>
        <time>2013-05-15T21:09:06Z</time>
      </trkpt>
      <trkpt lat="59.9549523" lon="17.7211145">
        <ele>40.9934</ele>
        <time>2013-05-15T21:09:07Z</time>
      </trkpt>
      <trkpt lat="59.9549305" lon="17.7211155">
        <ele>40.5128</ele>
        <time>2013-05-15T21:09:08Z</time>
      </trkpt>
      <trkpt lat="59.9549014" lon="17.7211267">
        <ele>42.916</ele>
        <time>2013-05-15T21:09:09Z</time>
      </trkpt>
      <trkpt lat="59.9548803" lon="17.7211245">
        <ele>43.8773</ele>
        <time>2013-05-15T21:09:10Z</time>
      </trkpt>
      <trkpt lat="59.95486" lon="17.7211111">
        <ele>44.358</ele>
        <time>2013-05-15T21:09:11Z</time>
      </trkpt>
      <trkpt lat="59.9548446" lon="17.721084">
        <ele>43.8773</ele>
        <time>2013-05-15T21:09:12Z</time>
      </trkpt>
      <trkpt lat="59.9548306" lon="17.7210499">
        <ele>44.8386</ele>
        <time>2013-05-15T21:09:13Z</time>
      </trkpt>
      <trkpt lat="59.9548232" lon="17.7210007">
        <ele>43.8773</ele>
        <time>2013-05-15T21:09:14Z</time>
      </trkpt>
      <trkpt lat="59.9548237" lon="17.7209536">
        <ele>42.916</ele>
        <time>2013-05-15T21:09:15Z</time>
      </trkpt>
      <trkpt lat="59.9548263" lon="17.7209038">
        <ele>42.4354</ele>
        <time>2013-05-15T21:09:16Z</time>
      </trkpt>
      <trkpt lat="59.9548211" lon="17.7208498">
        <ele>42.916</ele>
        <time>2013-05-15T21:09:17Z</time>
      </trkpt>
      <trkpt lat="59.9548158" lon="17.7208028">
        <ele>43.3966</ele>
        <time>2013-05-15T21:09:18Z</time>
      </trkpt>
      <trkpt lat="59.9548161" lon="17.7207608">
        <ele>43.8773</ele>
        <time>2013-05-15T21:09:19Z</time>
      </trkpt>
      <trkpt lat="59.954816" lon="17.720719">
        <ele>43.3966</ele>
        <time>2013-05-15T21:09:20Z</time>
      </trkpt>
      <trkpt lat="59.9548195" lon="17.720676">
        <ele>42.916</ele>
        <time>2013-05-15T21:09:21Z</time>
      </trkpt>
      <trkpt lat="59.9548248" lon="17.7206353">
        <ele>42.916</ele>
        <time>2013-05-15T21:09:22Z</time>
      </trkpt>
      <trkpt lat="59.9548324" lon="17.720608">
        <ele>42.4354</ele>
        <time>2013-05-15T21:09:23Z</time>
      </trkpt>
      <trkpt lat="59.954845" lon="17.7205807">
        <ele>42.4354</ele>
        <time>2013-05-15T21:09:24Z</time>
      </trkpt>
      <trkpt lat="59.9548574" lon="17.7205515">
        <ele>41.9547</ele>
        <time>2013-05-15T21:09:25Z</time>
      </trkpt>
      <trkpt lat="59.9548679" lon="17.7205268">
        <ele>41.474</ele>
        <time>2013-05-15T21:09:26Z</time>
      </trkpt>
      <trkpt lat="59.9548838" lon="17.7205061">
        <ele>41.474</ele>
        <time>2013-05-15T21:09:27Z</time>
      </trkpt>
      <trkpt lat="59.9549088" lon="17.7204861">
        <ele>42.4354</ele>
        <time>2013-05-15T21:09:28Z</time>
      </trkpt>
      <trkpt lat="59.9549335" lon="17.7204683">
        <ele>42.916</ele>
        <time>2013-05-15T21:09:29Z</time>
      </trkpt>
      <trkpt lat="59.9549574" lon="17.7204464">
        <ele>42.916</ele>
        <time>2013-05-15T21:09:30Z</time>
      </trkpt>
      <trkpt lat="59.954977" lon="17.7204251">
        <ele>43.3966</ele>
        <time>2013-05-15T21:09:31Z</time>
      </trkpt>
      <trkpt lat="59.9550002" lon="17.7204115">
        <ele>43.8773</ele>
        <time>2013-05-15T21:09:32Z</time>
      </trkpt>
      <trkpt lat="59.9550217" lon="17.7203967">
        <ele>43.8773</ele>
        <time>2013-05-15T21:09:33Z</time>
      </trkpt>
      <trkpt lat="59.9550401" lon="17.7203844">
        <ele>43.3966</ele>
        <time>2013-05-15T21:09:34Z</time>
      </trkpt>
      <trkpt lat="59.9550606" lon="17.7203718">
        <ele>43.8773</ele>
        <time>2013-05-15T21:09:35Z</time>
      </trkpt>
      <trkpt lat="59.9550813" lon="17.72036">
        <ele>44.8386</ele>
        <time>2013-05-15T21:09:36Z</time>
      </trkpt>
      <trkpt lat="59.955104" lon="17.7203454">
        <ele>44.8386</ele>
        <time>2013-05-15T21:09:37Z</time>
      </trkpt>
      <trkpt lat="59.9551269" lon="17.7203287">
        <ele>45.3192</ele>
        <time>2013-05-15T21:09:38Z</time>
      </trkpt>
      <trkpt lat="59.9551522" lon="17.7203102">
        <ele>46.2806</ele>
        <time>2013-05-15T21:09:39Z</time>
      </trkpt>
      <trkpt lat="59.9551719" lon="17.7202827">
        <ele>46.2806</ele>
        <time>2013-05-15T21:09:40Z</time>
      </trkpt>
      <trkpt lat="59.9551873" lon="17.7202533">
        <ele>46.7612</ele>
        <time>2013-05-15T21:09:41Z</time>
      </trkpt>
      <trkpt lat="59.9552049" lon="17.7202366">
        <ele>46.7612</ele>
        <time>2013-05-15T21:09:42Z</time>
      </trkpt>
      <trkpt lat="59.9552206" lon="17.720222">
        <ele>46.2806</ele>
        <time>2013-05-15T21:09:43Z</time>
      </trkpt>
      <trkpt lat="59.9552366" lon="17.7201999">
        <ele>46.2806</ele>
        <time>2013-05-15T21:09:44Z</time>
      </trkpt>
      <trkpt lat="59.9552562" lon="17.7201807">
        <ele>46.7612</ele>
        <time>2013-05-15T21:09:45Z</time>
      </trkpt>
      <trkpt lat="59.955276" lon="17.7201592">
        <ele>47.2418</ele>
        <time>2013-05-15T21:09:46Z</time>
      </trkpt>
      <trkpt lat="59.9553099" lon="17.7201122">
        <ele>47.2418</ele>
        <time>2013-05-15T21:09:48Z</time>
      </trkpt>
      <trkpt lat="59.9553262" lon="17.7200899">
        <ele>47.2418</ele>
        <time>2013-05-15T21:09:49Z</time>
      </trkpt>
      <trkpt lat="59.9553397" lon="17.7200693">
        <ele>47.7225</ele>
        <time>2013-05-15T21:09:50Z</time>
      </trkpt>
      <trkpt lat="59.9553537" lon="17.7200551">
        <ele>48.2034</ele>
        <time>2013-05-15T21:09:51Z</time>
      </trkpt>
      <trkpt lat="59.9553701" lon="17.7200388">
        <ele>48.2034</ele>
        <time>2013-05-15T21:09:52Z</time>
      </trkpt>
      <trkpt lat="59.9553935" lon="17.7200116">
        <ele>48.2034</ele>
        <time>2013-05-15T21:09:53Z</time>
      </trkpt>
      <trkpt lat="59.9554123" lon="17.7199854">
        <ele>48.2034</ele>
        <time>2013-05-15T21:09:54Z</time>
      </trkpt>
      <trkpt lat="59.9554303" lon="17.719966">
        <ele>48.684</ele>
        <time>2013-05-15T21:09:55Z</time>
      </trkpt>
      <trkpt lat="59.9554488" lon="17.7199508">
        <ele>48.684</ele>
        <time>2013-05-15T21:09:56Z</time>
      </trkpt>
      <trkpt lat="59.9554687" lon="17.7199377">
        <ele>48.684</ele>
        <time>2013-05-15T21:09:57Z</time>
      </trkpt>
      <trkpt lat="59.9554907" lon="17.7199283">
        <ele>49.1646</ele>
        <time>2013-05-15T21:09:58Z</time>
      </trkpt>
      <trkpt lat="59.9555096" lon="17.7199181">
        <ele>49.6453</ele>
        <time>2013-05-15T21:09:59Z</time>
      </trkpt>
      <trkpt lat="59.9555277" lon="17.7199011">
        <ele>49.6453</ele>
        <time>2013-05-15T21:10:00Z</time>
      </trkpt>
      <trkpt lat="59.9555474" lon="17.7198874">
        <ele>49.1646</ele>
        <time>2013-05-15T21:10:01Z</time>
      </trkpt>
      <trkpt lat="59.9555692" lon="17.7198724">
        <ele>48.684</ele>
        <time>2013-05-15T21:10:02Z</time>
      </trkpt>
      <trkpt lat="59.9555961" lon="17.71985">
        <ele>49.1646</ele>
        <time>2013-05-15T21:10:03Z</time>
      </trkpt>
      <trkpt lat="59.9556252" lon="17.7198257">
        <ele>50.126</ele>
        <time>2013-05-15T21:10:04Z</time>
      </trkpt>
      <trkpt lat="59.9556472" lon="17.7198099">
        <ele>49.6453</ele>
        <time>2013-05-15T21:10:05Z</time>
      </trkpt>
      <trkpt lat="59.9556694" lon="17.7197917">
        <ele>50.126</ele>
        <time>2013-05-15T21:10:06Z</time>
      </trkpt>
      <trkpt lat="59.955692" lon="17.7197704">
        <ele>50.126</ele>
        <time>2013-05-15T21:10:07Z</time>
      </trkpt>
      <trkpt lat="59.9557218" lon="17.7197414">
        <ele>50.6066</ele>
        <time>2013-05-15T21:10:08Z</time>
      </trkpt>
      <trkpt lat="59.9557505" lon="17.7197125">
        <ele>51.0872</ele>
        <time>2013-05-15T21:10:09Z</time>
      </trkpt>
      <trkpt lat="59.9557754" lon="17.7196905">
        <ele>50.6066</ele>
        <time>2013-05-15T21:10:10Z</time>
      </trkpt>
      <trkpt lat="59.955796" lon="17.7196746">
        <ele>50.6066</ele>
        <time>2013-05-15T21:10:11Z</time>
      </trkpt>
      <trkpt lat="59.9558147" lon="17.719662">
        <ele>50.126</ele>
        <time>2013-05-15T21:10:12Z</time>
      </trkpt>
      <trkpt lat="59.9558374" lon="17.7196431">
        <ele>50.126</ele>
        <time>2013-05-15T21:10:13Z</time>
      </trkpt>
      <trkpt lat="59.9558624" lon="17.7196243">
        <ele>50.6066</ele>
        <time>2013-05-15T21:10:14Z</time>
      </trkpt>
      <trkpt lat="59.9558888" lon="17.719606">
        <ele>51.0872</ele>
        <time>2013-05-15T21:10:15Z</time>
      </trkpt>
      <trkpt lat="59.9559147" lon="17.7195819">
        <ele>51.0872</ele>
        <time>2013-05-15T21:10:16Z</time>
      </trkpt>
      <trkpt lat="59.9559395" lon="17.7195523">
        <ele>51.0872</ele>
        <time>2013-05-15T21:10:17Z</time>
      </trkpt>
      <trkpt lat="59.9559629" lon="17.7195192">
        <ele>51.0872</ele>
        <time>2013-05-15T21:10:18Z</time>
      </trkpt>
      <trkpt lat="59.9559793" lon="17.7194864">
        <ele>49.1646</ele>
        <time>2013-05-15T21:10:19Z</time>
      </trkpt>
      <trkpt lat="59.9560059" lon="17.7194508">
        <ele>49.6453</ele>
        <time>2013-05-15T21:10:20Z</time>
      </trkpt>
      <trkpt lat="59.9560297" lon="17.7194229">
        <ele>49.1646</ele>
        <time>2013-05-15T21:10:21Z</time>
      </trkpt>
      <trkpt lat="59.9560488" lon="17.7193988">
        <ele>48.684</ele>
        <time>2013-05-15T21:10:22Z</time>
      </trkpt>
      <trkpt lat="59.9560716" lon="17.7193755">
        <ele>48.684</ele>
        <time>2013-05-15T21:10:23Z</time>
      </trkpt>
      <trkpt lat="59.9560934" lon="17.7193494">
        <ele>48.2034</ele>
        <time>2013-05-15T21:10:24Z</time>
      </trkpt>
      <trkpt lat="59.9561144" lon="17.7193093">
        <ele>47.7225</ele>
        <time>2013-05-15T21:10:25Z</time>
      </trkpt>
      <trkpt lat="59.9561349" lon="17.7192669">
        <ele>47.7225</ele>
        <time>2013-05-15T21:10:26Z</time>
      </trkpt>
      <trkpt lat="59.9561515" lon="17.719222">
        <ele>47.7225</ele>
        <time>2013-05-15T21:10:27Z</time>
      </trkpt>
      <trkpt lat="59.9561638" lon="17.7191795">
        <ele>48.2034</ele>
        <time>2013-05-15T21:10:28Z</time>
      </trkpt>
      <trkpt lat="59.9561755" lon="17.7191476">
        <ele>48.2034</ele>
        <time>2013-05-15T21:10:29Z</time>
      </trkpt>
      <trkpt lat="59.9561876" lon="17.7191098">
        <ele>48.684</ele>
        <time>2013-05-15T21:10:30Z</time>
      </trkpt>
      <trkpt lat="59.9561996" lon="17.7190632">
        <ele>49.6453</ele>
        <time>2013-05-15T21:10:31Z</time>
      </trkpt>
      <trkpt lat="59.9562074" lon="17.7190115">
        <ele>50.126</ele>
        <time>2013-05-15T21:10:32Z</time>
      </trkpt>
      <trkpt lat="59.9562147" lon="17.7189549">
        <ele>51.5679</ele>
        <time>2013-05-15T21:10:33Z</time>
      </trkpt>
      <trkpt lat="59.9562146" lon="17.7189145">
        <ele>51.0872</ele>
        <time>2013-05-15T21:10:34Z</time>
      </trkpt>
      <trkpt lat="59.9562128" lon="17.7188567">
        <ele>52.5292</ele>
        <time>2013-05-15T21:10:35Z</time>
      </trkpt>
      <trkpt lat="59.9562102" lon="17.7188074">
        <ele>52.5292</ele>
        <time>2013-05-15T21:10:36Z</time>
      </trkpt>
      <trkpt lat="59.9562061" lon="17.7187575">
        <ele>53.0098</ele>
        <time>2013-05-15T21:10:37Z</time>
      </trkpt>
      <trkpt lat="59.9561974" lon="17.7187136">
        <ele>52.5292</ele>
        <time>2013-05-15T21:10:38Z</time>
      </trkpt>
      <trkpt lat="59.9561883" lon="17.7186454">
        <ele>53.0098</ele>
        <time>2013-05-15T21:10:39Z</time>
      </trkpt>
      <trkpt lat="59.9561825" lon="17.7185878">
        <ele>52.5292</ele>
        <time>2013-05-15T21:10:40Z</time>
      </trkpt>
      <trkpt lat="59.956175" lon="17.7185343">
        <ele>52.5292</ele>
        <time>2013-05-15T21:10:41Z</time>
      </trkpt>
      <trkpt lat="59.9561619" lon="17.7184811">
        <ele>52.5292</ele>
        <time>2013-05-15T21:10:42Z</time>
      </trkpt>
      <trkpt lat="59.9561479" lon="17.7184205">
        <ele>52.0486</ele>
        <time>2013-05-15T21:10:43Z</time>
      </trkpt>
      <trkpt lat="59.9561351" lon="17.7183664">
        <ele>51.0872</ele>
        <time>2013-05-15T21:10:44Z</time>
      </trkpt>
      <trkpt lat="59.9561212" lon="17.7183251">
        <ele>51.5679</ele>
        <time>2013-05-15T21:10:45Z</time>
      </trkpt>
      <trkpt lat="59.9561043" lon="17.7182801">
        <ele>50.6066</ele>
        <time>2013-05-15T21:10:46Z</time>
      </trkpt>
      <trkpt lat="59.9560893" lon="17.7182231">
        <ele>51.0872</ele>
        <time>2013-05-15T21:10:47Z</time>
      </trkpt>
      <trkpt lat="59.9560752" lon="17.7181712">
        <ele>49.6453</ele>
        <time>2013-05-15T21:10:48Z</time>
      </trkpt>
      <trkpt lat="59.9560597" lon="17.7181095">
        <ele>50.126</ele>
        <time>2013-05-15T21:10:49Z</time>
      </trkpt>
      <trkpt lat="59.9560432" lon="17.7180542">
        <ele>50.6066</ele>
        <time>2013-05-15T21:10:50Z</time>
      </trkpt>
      <trkpt lat="59.9560253" lon="17.7180039">
        <ele>51.0872</ele>
        <time>2013-05-15T21:10:51Z</time>
      </trkpt>
      <trkpt lat="59.956009" lon="17.7179641">
        <ele>50.6066</ele>
        <time>2013-05-15T21:10:52Z</time>
      </trkpt>
      <trkpt lat="59.9559964" lon="17.7179262">
        <ele>50.126</ele>
        <time>2013-05-15T21:10:53Z</time>
      </trkpt>
      <trkpt lat="59.9559825" lon="17.7178837">
        <ele>49.6453</ele>
        <time>2013-05-15T21:10:54Z</time>
      </trkpt>
      <trkpt lat="59.9559683" lon="17.7178296">
        <ele>49.1646</ele>
        <time>2013-05-15T21:10:55Z</time>
      </trkpt>
      <trkpt lat="59.9559525" lon="17.7177668">
        <ele>49.6453</ele>
        <time>2013-05-15T21:10:56Z</time>
      </trkpt>
      <trkpt lat="59.9559375" lon="17.7177138">
        <ele>49.6453</ele>
        <time>2013-05-15T21:10:57Z</time>
      </trkpt>
      <trkpt lat="59.9559266" lon="17.7176641">
        <ele>48.684</ele>
        <time>2013-05-15T21:10:58Z</time>
      </trkpt>
      <trkpt lat="59.9559131" lon="17.7176184">
        <ele>48.2034</ele>
        <time>2013-05-15T21:10:59Z</time>
      </trkpt>
      <trkpt lat="59.955896" lon="17.7175796">
        <ele>47.2418</ele>
        <time>2013-05-15T21:11:00Z</time>
      </trkpt>
      <trkpt lat="59.9558804" lon="17.7175459">
        <ele>46.7612</ele>
        <time>2013-05-15T21:11:01Z</time>
      </trkpt>
      <trkpt lat="59.9558628" lon="17.7175112">
        <ele>46.2806</ele>
        <time>2013-05-15T21:11:02Z</time>
      </trkpt>
      <trkpt lat="59.9558426" lon="17.7174699">
        <ele>46.7612</ele>
        <time>2013-05-15T21:11:03Z</time>
      </trkpt>
      <trkpt lat="59.9558255" lon="17.7174293">
        <ele>46.7612</ele>
        <time>2013-05-15T21:11:04Z</time>
      </trkpt>
      <trkpt lat="59.9558106" lon="17.717385">
        <ele>46.7612</ele>
        <time>2013-05-15T21:11:05Z</time>
      </trkpt>
      <trkpt lat="59.9557914" lon="17.7173508">
        <ele>47.2418</ele>
        <time>2013-05-15T21:11:06Z</time>
      </trkpt>
      <trkpt lat="59.9557725" lon="17.7173176">
        <ele>47.2418</ele>
        <time>2013-05-15T21:11:07Z</time>
      </trkpt>
      <trkpt lat="59.9557541" lon="17.7172829">
        <ele>48.2034</ele>
        <time>2013-05-15T21:11:08Z</time>
      </trkpt>
      <trkpt lat="59.9557354" lon="17.7172487">
        <ele>48.2034</ele>
        <time>2013-05-15T21:11:09Z</time>
      </trkpt>
      <trkpt lat="59.9557223" lon="17.7172035">
        <ele>47.7225</ele>
        <time>2013-05-15T21:11:10Z</time>
      </trkpt>
      <trkpt lat="59.9557086" lon="17.7171484">
        <ele>48.2034</ele>
        <time>2013-05-15T21:11:11Z</time>
      </trkpt>
      <trkpt lat="59.9556956" lon="17.7170944">
        <ele>48.2034</ele>
        <time>2013-05-15T21:11:12Z</time>
      </trkpt>
      <trkpt lat="59.9556877" lon="17.7170342">
        <ele>48.2034</ele>
        <time>2013-05-15T21:11:13Z</time>
      </trkpt>
      <trkpt lat="59.9556805" lon="17.7169814">
        <ele>48.2034</ele>
        <time>2013-05-15T21:11:14Z</time>
      </trkpt>
      <trkpt lat="59.9556707" lon="17.716936">
        <ele>47.7225</ele>
        <time>2013-05-15T21:11:15Z</time>
      </trkpt>
      <trkpt lat="59.955656" lon="17.7168859">
        <ele>47.2418</ele>
        <time>2013-05-15T21:11:16Z</time>
      </trkpt>
      <trkpt lat="59.9556394" lon="17.7168264">
        <ele>47.7225</ele>
        <time>2013-05-15T21:11:17Z</time>
      </trkpt>
      <trkpt lat="59.9556301" lon="17.7167655">
        <ele>48.2034</ele>
        <time>2013-05-15T21:11:18Z</time>
      </trkpt>
      <trkpt lat="59.9556233" lon="17.7167152">
        <ele>47.2418</ele>
        <time>2013-05-15T21:11:19Z</time>
      </trkpt>
      <trkpt lat="59.9556105" lon="17.7166701">
        <ele>47.2418</ele>
        <time>2013-05-15T21:11:20Z</time>
      </trkpt>
      <trkpt lat="59.9555946" lon="17.7166318">
        <ele>47.7225</ele>
        <time>2013-05-15T21:11:21Z</time>
      </trkpt>
      <trkpt lat="59.9555852" lon="17.7165935">
        <ele>47.7225</ele>
        <time>2013-05-15T21:11:22Z</time>
      </trkpt>
      <trkpt lat="59.9555768" lon="17.7165556">
        <ele>47.2418</ele>
        <time>2013-05-15T21:11:23Z</time>
      </trkpt>
      <trkpt lat="59.9555707" lon="17.7165093">
        <ele>46.7612</ele>
        <time>2013-05-15T21:11:24Z</time>
      </trkpt>
      <trkpt lat="59.9555676" lon="17.7164627">
        <ele>46.7612</ele>
        <time>2013-05-15T21:11:25Z</time>
      </trkpt>
      <trkpt lat="59.9555593" lon="17.7164158">
        <ele>46.7612</ele>
        <time>2013-05-15T21:11:26Z</time>
      </trkpt>
      <trkpt lat="59.9555515" lon="17.7163716">
        <ele>46.7612</ele>
        <time>2013-05-15T21:11:27Z</time>
      </trkpt>
      <trkpt lat="59.9555443" lon="17.716337">
        <ele>46.2806</ele>
        <time>2013-05-15T21:11:28Z</time>
      </trkpt>
      <trkpt lat="59.9555402" lon="17.7162942">
        <ele>47.2418</ele>
        <time>2013-05-15T21:11:29Z</time>
      </trkpt>
      <trkpt lat="59.9555325" lon="17.7162562">
        <ele>47.2418</ele>
        <time>2013-05-15T21:11:30Z</time>
      </trkpt>
      <trkpt lat="59.9555235" lon="17.7162117">
        <ele>46.2806</ele>
        <time>2013-05-15T21:11:31Z</time>
      </trkpt>
      <trkpt lat="59.9555166" lon="17.7161623">
        <ele>45.7999</ele>
        <time>2013-05-15T21:11:32Z</time>
      </trkpt>
      <trkpt lat="59.9555092" lon="17.7161163">
        <ele>45.3192</ele>
        <time>2013-05-15T21:11:33Z</time>
      </trkpt>
      <trkpt lat="59.9555013" lon="17.7160582">
        <ele>44.8386</ele>
        <time>2013-05-15T21:11:34Z</time>
      </trkpt>
      <trkpt lat="59.9554946" lon="17.7159994">
        <ele>44.358</ele>
        <time>2013-05-15T21:11:35Z</time>
      </trkpt>
      <trkpt lat="59.9554883" lon="17.7159511">
        <ele>43.8773</ele>
        <time>2013-05-15T21:11:36Z</time>
      </trkpt>
      <trkpt lat="59.9554826" lon="17.7159055">
        <ele>43.3966</ele>
        <time>2013-05-15T21:11:37Z</time>
      </trkpt>
      <trkpt lat="59.9554816" lon="17.7158543">
        <ele>42.4354</ele>
        <time>2013-05-15T21:11:38Z</time>
      </trkpt>
      <trkpt lat="59.9554781" lon="17.7158025">
        <ele>41.9547</ele>
        <time>2013-05-15T21:11:39Z</time>
      </trkpt>
      <trkpt lat="59.9554727" lon="17.7157518">
        <ele>40.9934</ele>
        <time>2013-05-15T21:11:40Z</time>
      </trkpt>
      <trkpt lat="59.9554695" lon="17.7156999">
        <ele>41.474</ele>
        <time>2013-05-15T21:11:41Z</time>
      </trkpt>
      <trkpt lat="59.9554625" lon="17.7156585">
        <ele>40.9934</ele>
        <time>2013-05-15T21:11:42Z</time>
      </trkpt>
      <trkpt lat="59.9554551" lon="17.7156113">
        <ele>40.9934</ele>
        <time>2013-05-15T21:11:43Z</time>
      </trkpt>
      <trkpt lat="59.955446" lon="17.7155643">
        <ele>40.9934</ele>
        <time>2013-05-15T21:11:44Z</time>
      </trkpt>
      <trkpt lat="59.9554462" lon="17.7155107">
        <ele>40.9934</ele>
        <time>2013-05-15T21:11:45Z</time>
      </trkpt>
      <trkpt lat="59.9554436" lon="17.7154627">
        <ele>40.0321</ele>
        <time>2013-05-15T21:11:46Z</time>
      </trkpt>
      <trkpt lat="59.9554374" lon="17.7154125">
        <ele>39.5513</ele>
        <time>2013-05-15T21:11:47Z</time>
      </trkpt>
      <trkpt lat="59.9554292" lon="17.7153695">
        <ele>39.0707</ele>
        <time>2013-05-15T21:11:48Z</time>
      </trkpt>
      <trkpt lat="59.9554226" lon="17.7153191">
        <ele>39.0707</ele>
        <time>2013-05-15T21:11:49Z</time>
      </trkpt>
      <trkpt lat="59.9554156" lon="17.7152648">
        <ele>39.0707</ele>
        <time>2013-05-15T21:11:50Z</time>
      </trkpt>
      <trkpt lat="59.9554085" lon="17.7152181">
        <ele>38.5901</ele>
        <time>2013-05-15T21:11:51Z</time>
      </trkpt>
      <trkpt lat="59.9553983" lon="17.7151684">
        <ele>38.1094</ele>
        <time>2013-05-15T21:11:52Z</time>
      </trkpt>
      <trkpt lat="59.9553862" lon="17.7151173">
        <ele>38.5901</ele>
        <time>2013-05-15T21:11:53Z</time>
      </trkpt>
      <trkpt lat="59.9553706" lon="17.7150719">
        <ele>38.1094</ele>
        <time>2013-05-15T21:11:54Z</time>
      </trkpt>
      <trkpt lat="59.9553592" lon="17.7150307">
        <ele>38.1094</ele>
        <time>2013-05-15T21:11:55Z</time>
      </trkpt>
      <trkpt lat="59.9553465" lon="17.7149888">
        <ele>38.1094</ele>
        <time>2013-05-15T21:11:56Z</time>
      </trkpt>
      <trkpt lat="59.9553317" lon="17.7149463">
        <ele>38.1094</ele>
        <time>2013-05-15T21:11:57Z</time>
      </trkpt>
      <trkpt lat="59.9553189" lon="17.714902">
        <ele>38.1094</ele>
        <time>2013-05-15T21:11:58Z</time>
      </trkpt>
      <trkpt lat="59.9553064" lon="17.7148597">
        <ele>37.6287</ele>
        <time>2013-05-15T21:11:59Z</time>
      </trkpt>
      <trkpt lat="59.9552955" lon="17.7148178">
        <ele>37.6287</ele>
        <time>2013-05-15T21:12:00Z</time>
      </trkpt>
      <trkpt lat="59.9552851" lon="17.7147784">
        <ele>37.6287</ele>
        <time>2013-05-15T21:12:01Z</time>
      </trkpt>
      <trkpt lat="59.9552738" lon="17.7147369">
        <ele>37.1481</ele>
        <time>2013-05-15T21:12:02Z</time>
      </trkpt>
      <trkpt lat="59.9552607" lon="17.7146907">
        <ele>37.1481</ele>
        <time>2013-05-15T21:12:03Z</time>
      </trkpt>
      <trkpt lat="59.9552506" lon="17.7146448">
        <ele>37.1481</ele>
        <time>2013-05-15T21:12:04Z</time>
      </trkpt>
      <trkpt lat="59.9552436" lon="17.7146032">
        <ele>36.6675</ele>
        <time>2013-05-15T21:12:05Z</time>
      </trkpt>
      <trkpt lat="59.9552377" lon="17.7145603">
        <ele>36.6675</ele>
        <time>2013-05-15T21:12:06Z</time>
      </trkpt>
      <trkpt lat="59.9552268" lon="17.7145115">
        <ele>36.6675</ele>
        <time>2013-05-15T21:12:07Z</time>
      </trkpt>
      <trkpt lat="59.9552143" lon="17.7144642">
        <ele>36.6675</ele>
        <time>2013-05-15T21:12:08Z</time>
      </trkpt>
      <trkpt lat="59.9551998" lon="17.7144152">
        <ele>37.1481</ele>
        <time>2013-05-15T21:12:09Z</time>
      </trkpt>
      <trkpt lat="59.9551848" lon="17.7143674">
        <ele>36.1868</ele>
        <time>2013-05-15T21:12:10Z</time>
      </trkpt>
      <trkpt lat="59.9551713" lon="17.7143166">
        <ele>36.1868</ele>
        <time>2013-05-15T21:12:11Z</time>
      </trkpt>
      <trkpt lat="59.9551592" lon="17.7142691">
        <ele>36.6675</ele>
        <time>2013-05-15T21:12:12Z</time>
      </trkpt>
      <trkpt lat="59.9551514" lon="17.7142215">
        <ele>36.6675</ele>
        <time>2013-05-15T21:12:13Z</time>
      </trkpt>
      <trkpt lat="59.9551434" lon="17.714177">
        <ele>37.1481</ele>
        <time>2013-05-15T21:12:14Z</time>
      </trkpt>
      <trkpt lat="59.9551313" lon="17.714149">
        <ele>37.1481</ele>
        <time>2013-05-15T21:12:15Z</time>
      </trkpt>
      <trkpt lat="59.9551219" lon="17.7141369">
        <ele>36.6675</ele>
        <time>2013-05-15T21:12:16Z</time>
      </trkpt>
      <trkpt lat="59.9551116" lon="17.7141491">
        <ele>36.6675</ele>
        <time>2013-05-15T21:12:17Z</time>
      </trkpt>
      <trkpt lat="59.9550983" lon="17.7141863">
        <ele>35.7061</ele>
        <time>2013-05-15T21:12:18Z</time>
      </trkpt>
      <trkpt lat="59.9550862" lon="17.7142214">
        <ele>35.2255</ele>
        <time>2013-05-15T21:12:19Z</time>
      </trkpt>
      <trkpt lat="59.9550722" lon="17.7142525">
        <ele>35.2255</ele>
        <time>2013-05-15T21:12:20Z</time>
      </trkpt>
      <trkpt lat="59.9550533" lon="17.7142655">
        <ele>34.7449</ele>
        <time>2013-05-15T21:12:21Z</time>
      </trkpt>
      <trkpt lat="59.9550315" lon="17.7142703">
        <ele>34.7449</ele>
        <time>2013-05-15T21:12:22Z</time>
      </trkpt>
      <trkpt lat="59.9550117" lon="17.7142846">
        <ele>34.7449</ele>
        <time>2013-05-15T21:12:23Z</time>
      </trkpt>
      <trkpt lat="59.9549942" lon="17.7143131">
        <ele>34.7449</ele>
        <time>2013-05-15T21:12:24Z</time>
      </trkpt>
      <trkpt lat="59.9549745" lon="17.7143468">
        <ele>34.7449</ele>
        <time>2013-05-15T21:12:25Z</time>
      </trkpt>
      <trkpt lat="59.9549556" lon="17.714385">
        <ele>34.7449</ele>
        <time>2013-05-15T21:12:26Z</time>
      </trkpt>
      <trkpt lat="59.9549412" lon="17.714433">
        <ele>34.2642</ele>
        <time>2013-05-15T21:12:27Z</time>
      </trkpt>
      <trkpt lat="59.9549223" lon="17.7144936">
        <ele>34.7449</ele>
        <time>2013-05-15T21:12:28Z</time>
      </trkpt>
      <trkpt lat="59.9549107" lon="17.7145473">
        <ele>35.2255</ele>
        <time>2013-05-15T21:12:29Z</time>
      </trkpt>
      <trkpt lat="59.9548994" lon="17.7145965">
        <ele>35.2255</ele>
        <time>2013-05-15T21:12:30Z</time>
      </trkpt>
      <trkpt lat="59.9548828" lon="17.7146394">
        <ele>35.2255</ele>
        <time>2013-05-15T21:12:31Z</time>
      </trkpt>
      <trkpt lat="59.9548665" lon="17.7146773">
        <ele>35.2255</ele>
        <time>2013-05-15T21:12:32Z</time>
      </trkpt>
      <trkpt lat="59.9548456" lon="17.7147178">
        <ele>34.7449</ele>
        <time>2013-05-15T21:12:33Z</time>
      </trkpt>
      <trkpt lat="59.9548218" lon="17.7147458">
        <ele>35.2255</ele>
        <time>2013-05-15T21:12:34Z</time>
      </trkpt>
      <trkpt lat="59.9547974" lon="17.714753">
        <ele>35.2255</ele>
        <time>2013-05-15T21:12:35Z</time>
      </trkpt>
      <trkpt lat="59.9547721" lon="17.7147471">
        <ele>35.7061</ele>
        <time>2013-05-15T21:12:36Z</time>
      </trkpt>
      <trkpt lat="59.9547465" lon="17.7147369">
        <ele>36.1868</ele>
        <time>2013-05-15T21:12:37Z</time>
      </trkpt>
      <trkpt lat="59.9547236" lon="17.714723">
        <ele>36.1868</ele>
        <time>2013-05-15T21:12:38Z</time>
      </trkpt>
      <trkpt lat="59.9547008" lon="17.7147131">
        <ele>36.1868</ele>
        <time>2013-05-15T21:12:39Z</time>
      </trkpt>
      <trkpt lat="59.9546786" lon="17.7147048">
        <ele>36.1868</ele>
        <time>2013-05-15T21:12:40Z</time>
      </trkpt>
      <trkpt lat="59.9546502" lon="17.7147109">
        <ele>36.6675</ele>
        <time>2013-05-15T21:12:41Z</time>
      </trkpt>
      <trkpt lat="59.954621" lon="17.714711">
        <ele>37.1481</ele>
        <time>2013-05-15T21:12:42Z</time>
      </trkpt>
      <trkpt lat="59.9545923" lon="17.7147095">
        <ele>37.1481</ele>
        <time>2013-05-15T21:12:43Z</time>
      </trkpt>
      <trkpt lat="59.9545596" lon="17.7147204">
        <ele>37.1481</ele>
        <time>2013-05-15T21:12:44Z</time>
      </trkpt>
      <trkpt lat="59.9545299" lon="17.7147183">
        <ele>37.6287</ele>
        <time>2013-05-15T21:12:45Z</time>
      </trkpt>
      <trkpt lat="59.9544989" lon="17.7147079">
        <ele>37.6287</ele>
        <time>2013-05-15T21:12:46Z</time>
      </trkpt>
      <trkpt lat="59.954464" lon="17.7147064">
        <ele>37.6287</ele>
        <time>2013-05-15T21:12:47Z</time>
      </trkpt>
      <trkpt lat="59.9544245" lon="17.714697">
        <ele>37.6287</ele>
        <time>2013-05-15T21:12:48Z</time>
      </trkpt>
      <trkpt lat="59.9543848" lon="17.714679">
        <ele>38.1094</ele>
        <time>2013-05-15T21:12:49Z</time>
      </trkpt>
      <trkpt lat="59.9543439" lon="17.7146858">
        <ele>37.6287</ele>
        <time>2013-05-15T21:12:50Z</time>
      </trkpt>
      <trkpt lat="59.9543088" lon="17.7146923">
        <ele>37.1481</ele>
        <time>2013-05-15T21:12:51Z</time>
      </trkpt>
      <trkpt lat="59.9542858" lon="17.7146974">
        <ele>37.6287</ele>
        <time>2013-05-15T21:12:52Z</time>
      </trkpt>
      <trkpt lat="59.9542628" lon="17.7147016">
        <ele>37.1481</ele>
        <time>2013-05-15T21:12:53Z</time>
      </trkpt>
      <trkpt lat="59.9542392" lon="17.7147103">
        <ele>37.1481</ele>
        <time>2013-05-15T21:12:54Z</time>
      </trkpt>
      <trkpt lat="59.9542181" lon="17.7147276">
        <ele>36.6675</ele>
        <time>2013-05-15T21:12:55Z</time>
      </trkpt>
      <trkpt lat="59.9541965" lon="17.7147507">
        <ele>37.1481</ele>
        <time>2013-05-15T21:12:56Z</time>
      </trkpt>
      <trkpt lat="59.9541772" lon="17.7147665">
        <ele>37.1481</ele>
        <time>2013-05-15T21:12:57Z</time>
      </trkpt>
      <trkpt lat="59.9541594" lon="17.714785">
        <ele>36.6675</ele>
        <time>2013-05-15T21:12:58Z</time>
      </trkpt>
      <trkpt lat="59.9541406" lon="17.7147939">
        <ele>36.6675</ele>
        <time>2013-05-15T21:12:59Z</time>
      </trkpt>
      <trkpt lat="59.9541208" lon="17.7147826">
        <ele>36.1868</ele>
        <time>2013-05-15T21:13:00Z</time>
      </trkpt>
      <trkpt lat="59.9541048" lon="17.7147701">
        <ele>35.2255</ele>
        <time>2013-05-15T21:13:01Z</time>
      </trkpt>
      <trkpt lat="59.9540908" lon="17.7147622">
        <ele>34.7449</ele>
        <time>2013-05-15T21:13:02Z</time>
      </trkpt>
      <trkpt lat="59.9540745" lon="17.7147541">
        <ele>34.7449</ele>
        <time>2013-05-15T21:13:03Z</time>
      </trkpt>
      <trkpt lat="59.9540576" lon="17.7147478">
        <ele>34.2642</ele>
        <time>2013-05-15T21:13:04Z</time>
      </trkpt>
      <trkpt lat="59.954039" lon="17.7147463">
        <ele>33.7834</ele>
        <time>2013-05-15T21:13:05Z</time>
      </trkpt>
      <trkpt lat="59.9540142" lon="17.7147548">
        <ele>33.7834</ele>
        <time>2013-05-15T21:13:06Z</time>
      </trkpt>
      <trkpt lat="59.9539896" lon="17.7147722">
        <ele>34.2642</ele>
        <time>2013-05-15T21:13:07Z</time>
      </trkpt>
      <trkpt lat="59.9539637" lon="17.714774">
        <ele>33.7834</ele>
        <time>2013-05-15T21:13:08Z</time>
      </trkpt>
      <trkpt lat="59.953936" lon="17.7147732">
        <ele>33.7834</ele>
        <time>2013-05-15T21:13:09Z</time>
      </trkpt>
      <trkpt lat="59.9539134" lon="17.7147737">
        <ele>32.8223</ele>
        <time>2013-05-15T21:13:10Z</time>
      </trkpt>
      <trkpt lat="59.9538938" lon="17.7147679">
        <ele>31.8607</ele>
        <time>2013-05-15T21:13:11Z</time>
      </trkpt>
      <trkpt lat="59.9538706" lon="17.7147596">
        <ele>31.3801</ele>
        <time>2013-05-15T21:13:12Z</time>
      </trkpt>
      <trkpt lat="59.9538479" lon="17.7147618">
        <ele>30.8995</ele>
        <time>2013-05-15T21:13:13Z</time>
      </trkpt>
      <trkpt lat="59.9538234" lon="17.7147797">
        <ele>30.8995</ele>
        <time>2013-05-15T21:13:14Z</time>
      </trkpt>
      <trkpt lat="59.9537999" lon="17.7147979">
        <ele>30.8995</ele>
        <time>2013-05-15T21:13:15Z</time>
      </trkpt>
      <trkpt lat="59.9537756" lon="17.7148241">
        <ele>30.8995</ele>
        <time>2013-05-15T21:13:16Z</time>
      </trkpt>
      <trkpt lat="59.9537489" lon="17.7148613">
        <ele>30.8995</ele>
        <time>2013-05-15T21:13:17Z</time>
      </trkpt>
      <trkpt lat="59.953722" lon="17.7149052">
        <ele>30.8995</ele>
        <time>2013-05-15T21:13:18Z</time>
      </trkpt>
      <trkpt lat="59.9536934" lon="17.714957">
        <ele>30.8995</ele>
        <time>2013-05-15T21:13:19Z</time>
      </trkpt>
      <trkpt lat="59.9536665" lon="17.7149901">
        <ele>30.8995</ele>
        <time>2013-05-15T21:13:20Z</time>
      </trkpt>
      <trkpt lat="59.9536416" lon="17.7150191">
        <ele>30.4188</ele>
        <time>2013-05-15T21:13:21Z</time>
      </trkpt>
      <trkpt lat="59.9536221" lon="17.7150377">
        <ele>30.4188</ele>
        <time>2013-05-15T21:13:22Z</time>
      </trkpt>
      <trkpt lat="59.9536029" lon="17.7150652">
        <ele>29.9381</ele>
        <time>2013-05-15T21:13:23Z</time>
      </trkpt>
      <trkpt lat="59.9535862" lon="17.7151011">
        <ele>29.9381</ele>
        <time>2013-05-15T21:13:24Z</time>
      </trkpt>
      <trkpt lat="59.9535725" lon="17.7151327">
        <ele>29.9381</ele>
        <time>2013-05-15T21:13:25Z</time>
      </trkpt>
    </trkseg>
  </trk>
</gpx>